KJZP

Pickens County Airport

Jasper, Georgia, USA
METAR KJZP 230755Z AUTO 00000KT 10SM CLR 16/15 A3043 RMK AO2 T01620154 PNO
Observed Flight Rules
Feb-23 @ 07:55 UTC (32 minutes ago) Visual Flight Rules
Wind Visibility Clouds
Calm 10 miles
  • Clear skies
Temperatures Readings
Current 16°C / 61°F
Dewpoint 15°C / 59°F
Humidity 94%
Altimeter 30.43" Hg
Pressure 1030 hPa
Elevation 468
METAR KJZP 230755Z AUTO 00000KT 10SM CLR 16/15 A3043 RMK AO2 T01620154 PNO
Observed Flight Rules
Feb-23 @ 07:55 UTC
(32 minutes ago)
VFR
Wind Visibility
Calm 10 miles
Clouds
  • Clear skies
Temperature Dewpoint
16°C / 61°F 15°C / 59°F
Humidity Altimeter Pressure
94% 30.43" Hg 1030 hPa